sensor_id;sensor_type;location;lat;lon;timestamp;P1;durP1;ratioP1;P2;durP2;ratioP2
11761;SDS011;5938;47.098;15.474;2023-08-20T00:02:37;33.47;;;30.07;;
11761;SDS011;5938;47.098;15.474;2023-08-20T00:06:44;31.73;;;28.63;;
11761;SDS011;5938;47.098;15.474;2023-08-20T00:10:48;35.10;;;31.70;;
11761;SDS011;5938;47.098;15.474;2023-08-20T00:14:52;31.47;;;28.37;;
11761;SDS011;5938;47.098;15.474;2023-08-20T00:18:59;32.60;;;29.30;;
11761;SDS011;5938;47.098;15.474;2023-08-20T00:23:04;29.97;;;26.93;;
11761;SDS011;5938;47.098;15.474;2023-08-20T00:27:08;31.60;;;28.60;;
11761;SDS011;5938;47.098;15.474;2023-08-20T00:31:11;31.43;;;28.13;;
11761;SDS011;5938;47.098;15.474;2023-08-20T00:35:16;29.60;;;26.60;;
11761;SDS011;5938;47.098;15.474;2023-08-20T00:39:21;29.00;;;26.20;;
11761;SDS011;5938;47.098;15.474;2023-08-20T00:43:24;30.73;;;27.70;;
11761;SDS011;5938;47.098;15.474;2023-08-20T00:47:27;30.33;;;27.20;;
11761;SDS011;5938;47.098;15.474;2023-08-20T00:51:33;30.10;;;26.33;;
11761;SDS011;5938;47.098;15.474;2023-08-20T00:55:37;28.10;;;25.20;;
11761;SDS011;5938;47.098;15.474;2023-08-20T00:59:41;31.53;;;27.07;;
11761;SDS011;5938;47.098;15.474;2023-08-20T01:03:45;27.60;;;25.00;;
11761;SDS011;5938;47.098;15.474;2023-08-20T01:07:57;32.93;;;29.40;;
11761;SDS011;5938;47.098;15.474;2023-08-20T01:12:06;29.77;;;26.63;;
11761;SDS011;5938;47.098;15.474;2023-08-20T01:16:09;30.83;;;27.87;;
11761;SDS011;5938;47.098;15.474;2023-08-20T01:20:13;33.70;;;30.20;;
11761;SDS011;5938;47.098;15.474;2023-08-20T01:24:20;29.13;;;26.07;;
11761;SDS011;5938;47.098;15.474;2023-08-20T01:28:35;30.67;;;27.67;;
11761;SDS011;5938;47.098;15.474;2023-08-20T01:32:41;29.57;;;26.57;;
11761;SDS011;5938;47.098;15.474;2023-08-20T01:36:46;29.17;;;26.17;;
11761;SDS011;5938;47.098;15.474;2023-08-20T01:40:49;28.60;;;25.70;;
11761;SDS011;5938;47.098;15.474;2023-08-20T01:44:54;28.90;;;25.80;;
11761;SDS011;5938;47.098;15.474;2023-08-20T01:48:59;29.90;;;26.90;;
11761;SDS011;5938;47.098;15.474;2023-08-20T01:53:02;29.57;;;26.80;;
11761;SDS011;5938;47.098;15.474;2023-08-20T01:57:06;27.87;;;24.97;;
11761;SDS011;5938;47.098;15.474;2023-08-20T02:01:11;30.77;;;27.47;;
11761;SDS011;5938;47.098;15.474;2023-08-20T02:05:15;31.30;;;28.10;;
11761;SDS011;5938;47.098;15.474;2023-08-20T02:09:18;32.60;;;29.10;;
11761;SDS011;5938;47.098;15.474;2023-08-20T02:13:22;29.00;;;26.30;;
11761;SDS011;5938;47.098;15.474;2023-08-20T02:17:27;29.37;;;26.33;;
11761;SDS011;5938;47.098;15.474;2023-08-20T02:21:30;30.77;;;27.67;;
11761;SDS011;5938;47.098;15.474;2023-08-20T02:25:34;30.53;;;27.40;;
11761;SDS011;5938;47.098;15.474;2023-08-20T02:29:37;33.20;;;29.70;;
11761;SDS011;5938;47.098;15.474;2023-08-20T02:33:42;31.83;;;28.70;;
11761;SDS011;5938;47.098;15.474;2023-08-20T02:37:45;30.93;;;27.60;;
11761;SDS011;5938;47.098;15.474;2023-08-20T02:41:50;30.80;;;27.47;;
11761;SDS011;5938;47.098;15.474;2023-08-20T02:45:53;32.33;;;28.97;;
11761;SDS011;5938;47.098;15.474;2023-08-20T02:49:58;32.50;;;29.20;;
11761;SDS011;5938;47.098;15.474;2023-08-20T02:54:02;33.53;;;28.00;;
11761;SDS011;5938;47.098;15.474;2023-08-20T02:58:06;31.60;;;28.40;;
11761;SDS011;5938;47.098;15.474;2023-08-20T03:02:10;27.63;;;24.93;;
11761;SDS011;5938;47.098;15.474;2023-08-20T03:06:15;30.27;;;27.13;;
11761;SDS011;5938;47.098;15.474;2023-08-20T03:10:18;29.20;;;26.40;;
11761;SDS011;5938;47.098;15.474;2023-08-20T03:14:22;31.80;;;28.50;;
11761;SDS011;5938;47.098;15.474;2023-08-20T03:18:29;29.33;;;26.50;;
11761;SDS011;5938;47.098;15.474;2023-08-20T03:22:36;31.40;;;26.30;;
11761;SDS011;5938;47.098;15.474;2023-08-20T03:26:40;27.30;;;24.73;;
11761;SDS011;5938;47.098;15.474;2023-08-20T03:30:43;30.90;;;27.77;;
11761;SDS011;5938;47.098;15.474;2023-08-20T03:34:54;29.50;;;26.50;;
11761;SDS011;5938;47.098;15.474;2023-08-20T03:38:58;34.93;;;30.00;;
11761;SDS011;5938;47.098;15.474;2023-08-20T03:43:04;32.00;;;28.53;;
11761;SDS011;5938;47.098;15.474;2023-08-20T03:47:07;29.60;;;26.57;;
11761;SDS011;5938;47.098;15.474;2023-08-20T03:51:10;32.03;;;28.57;;
11761;SDS011;5938;47.098;15.474;2023-08-20T03:55:22;28.43;;;25.50;;
11761;SDS011;5938;47.098;15.474;2023-08-20T03:59:25;28.63;;;25.80;;
11761;SDS011;5938;47.098;15.474;2023-08-20T04:03:28;28.43;;;25.67;;
11761;SDS011;5938;47.098;15.474;2023-08-20T04:07:32;29.30;;;26.37;;
11761;SDS011;5938;47.098;15.474;2023-08-20T04:11:37;29.93;;;26.93;;
11761;SDS011;5938;47.098;15.474;2023-08-20T04:15:40;29.33;;;26.33;;
11761;SDS011;5938;47.098;15.474;2023-08-20T04:19:44;29.23;;;26.23;;
11761;SDS011;5938;47.098;15.474;2023-08-20T04:23:48;29.57;;;25.73;;
11761;SDS011;5938;47.098;15.474;2023-08-20T04:27:52;27.97;;;25.13;;
11761;SDS011;5938;47.098;15.474;2023-08-20T04:31:56;29.73;;;26.63;;
11761;SDS011;5938;47.098;15.474;2023-08-20T04:35:59;32.43;;;26.37;;
11761;SDS011;5938;47.098;15.474;2023-08-20T04:40:03;29.33;;;26.63;;
11761;SDS011;5938;47.098;15.474;2023-08-20T04:44:08;29.40;;;26.50;;
11761;SDS011;5938;47.098;15.474;2023-08-20T04:48:12;30.63;;;27.53;;
11761;SDS011;5938;47.098;15.474;2023-08-20T04:52:15;28.87;;;25.97;;
11761;SDS011;5938;47.098;15.474;2023-08-20T04:56:20;29.47;;;26.10;;
11761;SDS011;5938;47.098;15.474;2023-08-20T05:00:26;29.67;;;26.67;;
11761;SDS011;5938;47.098;15.474;2023-08-20T05:04:30;30.40;;;27.30;;
11761;SDS011;5938;47.098;15.474;2023-08-20T05:08:35;31.03;;;27.67;;
11761;SDS011;5938;47.098;15.474;2023-08-20T05:12:39;31.53;;;28.30;;
11761;SDS011;5938;47.098;15.474;2023-08-20T05:16:44;31.67;;;28.27;;
11761;SDS011;5938;47.098;15.474;2023-08-20T05:20:47;32.33;;;29.03;;
11761;SDS011;5938;47.098;15.474;2023-08-20T05:24:51;32.57;;;29.43;;
11761;SDS011;5938;47.098;15.474;2023-08-20T05:28:54;31.37;;;28.27;;
11761;SDS011;5938;47.098;15.474;2023-08-20T05:33:01;35.30;;;28.80;;
11761;SDS011;5938;47.098;15.474;2023-08-20T05:37:04;32.27;;;28.97;;
11761;SDS011;5938;47.098;15.474;2023-08-20T05:41:08;31.47;;;28.37;;
11761;SDS011;5938;47.098;15.474;2023-08-20T05:45:11;32.00;;;28.70;;
11761;SDS011;5938;47.098;15.474;2023-08-20T05:49:17;31.80;;;28.60;;
11761;SDS011;5938;47.098;15.474;2023-08-20T05:53:21;32.03;;;28.90;;
11761;SDS011;5938;47.098;15.474;2023-08-20T05:57:25;30.73;;;27.80;;
11761;SDS011;5938;47.098;15.474;2023-08-20T06:01:29;32.10;;;28.90;;
11761;SDS011;5938;47.098;15.474;2023-08-20T06:05:34;31.80;;;28.60;;
11761;SDS011;5938;47.098;15.474;2023-08-20T06:09:37;32.70;;;29.40;;
11761;SDS011;5938;47.098;15.474;2023-08-20T06:13:40;32.10;;;29.10;;
11761;SDS011;5938;47.098;15.474;2023-08-20T06:17:44;33.53;;;30.50;;
11761;SDS011;5938;47.098;15.474;2023-08-20T06:21:49;34.00;;;30.50;;
11761;SDS011;5938;47.098;15.474;2023-08-20T06:25:52;32.00;;;29.00;;
11761;SDS011;5938;47.098;15.474;2023-08-20T06:29:55;33.53;;;30.10;;
11761;SDS011;5938;47.098;15.474;2023-08-20T06:33:59;31.63;;;28.57;;
11761;SDS011;5938;47.098;15.474;2023-08-20T06:38:04;31.10;;;28.10;;
11761;SDS011;5938;47.098;15.474;2023-08-20T06:42:07;31.80;;;28.80;;
11761;SDS011;5938;47.098;15.474;2023-08-20T06:46:11;31.20;;;28.20;;
11761;SDS011;5938;47.098;15.474;2023-08-20T06:50:15;30.27;;;27.30;;
11761;SDS011;5938;47.098;15.474;2023-08-20T06:54:21;29.07;;;26.37;;
11761;SDS011;5938;47.098;15.474;2023-08-20T06:58:25;27.07;;;24.43;;
11761;SDS011;5938;47.098;15.474;2023-08-20T07:02:28;25.03;;;22.77;;
11761;SDS011;5938;47.098;15.474;2023-08-20T07:06:31;24.27;;;21.97;;
11761;SDS011;5938;47.098;15.474;2023-08-20T07:10:36;22.60;;;20.70;;
11761;SDS011;5938;47.098;15.474;2023-08-20T07:14:40;22.37;;;20.37;;
11761;SDS011;5938;47.098;15.474;2023-08-20T07:18:43;21.03;;;19.00;;
11761;SDS011;5938;47.098;15.474;2023-08-20T07:22:46;22.80;;;20.70;;
11761;SDS011;5938;47.098;15.474;2023-08-20T07:26:51;20.50;;;18.67;;
11761;SDS011;5938;47.098;15.474;2023-08-20T07:31:00;20.03;;;18.23;;
11761;SDS011;5938;47.098;15.474;2023-08-20T07:35:06;18.60;;;17.13;;
11761;SDS011;5938;47.098;15.474;2023-08-20T07:39:12;20.50;;;18.53;;
11761;SDS011;5938;47.098;15.474;2023-08-20T07:43:20;18.33;;;16.93;;
11761;SDS011;5938;47.098;15.474;2023-08-20T07:47:23;15.87;;;14.50;;
11761;SDS011;5938;47.098;15.474;2023-08-20T07:51:27;17.17;;;15.77;;
11761;SDS011;5938;47.098;15.474;2023-08-20T07:55:30;17.27;;;15.77;;
11761;SDS011;5938;47.098;15.474;2023-08-20T07:59:35;17.33;;;15.93;;
11761;SDS011;5938;47.098;15.474;2023-08-20T08:03:39;15.83;;;14.53;;
11761;SDS011;5938;47.098;15.474;2023-08-20T08:07:44;17.07;;;15.57;;
11761;SDS011;5938;47.098;15.474;2023-08-20T08:11:48;17.77;;;15.47;;
11761;SDS011;5938;47.098;15.474;2023-08-20T08:15:53;16.50;;;15.20;;
11761;SDS011;5938;47.098;15.474;2023-08-20T08:19:59;14.93;;;13.50;;
11761;SDS011;5938;47.098;15.474;2023-08-20T08:24:04;15.60;;;14.50;;
11761;SDS011;5938;47.098;15.474;2023-08-20T08:28:08;16.17;;;14.77;;
11761;SDS011;5938;47.098;15.474;2023-08-20T08:32:13;16.30;;;14.80;;
11761;SDS011;5938;47.098;15.474;2023-08-20T08:36:17;14.83;;;13.30;;
11761;SDS011;5938;47.098;15.474;2023-08-20T08:40:21;14.70;;;13.50;;
11761;SDS011;5938;47.098;15.474;2023-08-20T08:44:25;13.57;;;12.60;;
11761;SDS011;5938;47.098;15.474;2023-08-20T08:48:31;12.70;;;11.80;;
11761;SDS011;5938;47.098;15.474;2023-08-20T08:52:35;13.60;;;12.00;;
11761;SDS011;5938;47.098;15.474;2023-08-20T08:56:42;11.30;;;10.60;;
11761;SDS011;5938;47.098;15.474;2023-08-20T09:00:46;13.17;;;12.20;;
11761;SDS011;5938;47.098;15.474;2023-08-20T09:04:51;12.50;;;11.40;;
11761;SDS011;5938;47.098;15.474;2023-08-20T09:09:02;12.10;;;11.30;;
11761;SDS011;5938;47.098;15.474;2023-08-20T09:13:19;12.03;;;11.23;;
11761;SDS011;5938;47.098;15.474;2023-08-20T09:18:04;11.93;;;11.03;;
11761;SDS011;5938;47.098;15.474;2023-08-20T09:22:13;11.97;;;11.07;;
11761;SDS011;5938;47.098;15.474;2023-08-20T09:26:17;10.87;;;10.17;;
11761;SDS011;5938;47.098;15.474;2023-08-20T09:30:20;10.80;;;10.10;;
11761;SDS011;5938;47.098;15.474;2023-08-20T09:34:24;11.20;;;10.40;;
11761;SDS011;5938;47.098;15.474;2023-08-20T09:38:29;11.53;;;10.43;;
11761;SDS011;5938;47.098;15.474;2023-08-20T09:42:38;10.60;;;9.80;;
11761;SDS011;5938;47.098;15.474;2023-08-20T09:46:42;11.33;;;10.40;;
11761;SDS011;5938;47.098;15.474;2023-08-20T09:50:46;10.37;;;9.67;;
11761;SDS011;5938;47.098;15.474;2023-08-20T09:54:56;10.67;;;9.97;;
11761;SDS011;5938;47.098;15.474;2023-08-20T09:59:03;9.48;;;8.80;;
11761;SDS011;5938;47.098;15.474;2023-08-20T10:03:07;8.50;;;8.00;;
11761;SDS011;5938;47.098;15.474;2023-08-20T10:07:11;10.67;;;8.90;;
11761;SDS011;5938;47.098;15.474;2023-08-20T10:11:16;10.50;;;9.50;;
11761;SDS011;5938;47.098;15.474;2023-08-20T10:15:25;10.97;;;10.10;;
11761;SDS011;5938;47.098;15.474;2023-08-20T10:19:30;8.93;;;8.33;;
11761;SDS011;5938;47.098;15.474;2023-08-20T10:23:33;9.20;;;8.40;;
11761;SDS011;5938;47.098;15.474;2023-08-20T10:27:39;9.13;;;8.53;;
11761;SDS011;5938;47.098;15.474;2023-08-20T10:31:45;9.50;;;8.77;;
11761;SDS011;5938;47.098;15.474;2023-08-20T10:35:50;7.57;;;7.13;;
11761;SDS011;5938;47.098;15.474;2023-08-20T10:39:53;7.93;;;7.40;;
11761;SDS011;5938;47.098;15.474;2023-08-20T10:44:01;9.00;;;8.20;;
11761;SDS011;5938;47.098;15.474;2023-08-20T10:48:04;9.67;;;8.77;;
11761;SDS011;5938;47.098;15.474;2023-08-20T10:52:08;9.33;;;8.63;;
11761;SDS011;5938;47.098;15.474;2023-08-20T10:56:13;8.63;;;8.13;;
11761;SDS011;5938;47.098;15.474;2023-08-20T11:00:23;9.13;;;8.40;;
11761;SDS011;5938;47.098;15.474;2023-08-20T11:04:31;9.70;;;8.30;;
11761;SDS011;5938;47.098;15.474;2023-08-20T11:08:46;8.43;;;7.83;;
11761;SDS011;5938;47.098;15.474;2023-08-20T11:12:52;9.37;;;8.37;;
11761;SDS011;5938;47.098;15.474;2023-08-20T11:16:57;9.07;;;8.37;;
11761;SDS011;5938;47.098;15.474;2023-08-20T11:21:01;8.40;;;7.90;;
11761;SDS011;5938;47.098;15.474;2023-08-20T11:35:51;8.37;;;7.77;;
11761;SDS011;5938;47.098;15.474;2023-08-20T11:39:54;8.07;;;7.57;;
11761;SDS011;5938;47.098;15.474;2023-08-20T11:43:59;8.47;;;7.97;;
11761;SDS011;5938;47.098;15.474;2023-08-20T11:48:19;9.47;;;8.67;;
11761;SDS011;5938;47.098;15.474;2023-08-20T11:52:27;8.87;;;8.37;;
11761;SDS011;5938;47.098;15.474;2023-08-20T11:56:33;9.10;;;8.40;;
11761;SDS011;5938;47.098;15.474;2023-08-20T12:00:37;8.23;;;7.43;;
11761;SDS011;5938;47.098;15.474;2023-08-20T12:04:41;8.43;;;7.93;;
11761;SDS011;5938;47.098;15.474;2023-08-20T12:08:45;8.43;;;7.93;;
11761;SDS011;5938;47.098;15.474;2023-08-20T12:12:49;8.03;;;7.27;;
11761;SDS011;5938;47.098;15.474;2023-08-20T12:16:54;8.30;;;7.80;;
11761;SDS011;5938;47.098;15.474;2023-08-20T12:20:58;7.90;;;7.30;;
11761;SDS011;5938;47.098;15.474;2023-08-20T12:25:04;8.20;;;7.60;;
11761;SDS011;5938;47.098;15.474;2023-08-20T12:29:08;8.27;;;7.57;;
11761;SDS011;5938;47.098;15.474;2023-08-20T12:33:11;7.90;;;7.37;;
11761;SDS011;5938;47.098;15.474;2023-08-20T12:37:18;8.43;;;7.90;;
11761;SDS011;5938;47.098;15.474;2023-08-20T12:41:23;7.97;;;7.40;;
11761;SDS011;5938;47.098;15.474;2023-08-20T12:56:20;9.03;;;8.43;;
11761;SDS011;5938;47.098;15.474;2023-08-20T13:07:17;8.40;;;7.90;;
11761;SDS011;5938;47.098;15.474;2023-08-20T13:11:21;7.87;;;7.33;;
11761;SDS011;5938;47.098;15.474;2023-08-20T13:15:29;7.47;;;6.87;;
11761;SDS011;5938;47.098;15.474;2023-08-20T13:19:42;7.40;;;7.00;;
11761;SDS011;5938;47.098;15.474;2023-08-20T13:35:07;8.60;;;7.93;;
11761;SDS011;5938;47.098;15.474;2023-08-20T13:39:24;8.50;;;7.90;;
11761;SDS011;5938;47.098;15.474;2023-08-20T13:43:32;8.37;;;7.90;;
11761;SDS011;5938;47.098;15.474;2023-08-20T13:47:36;8.03;;;7.33;;
11761;SDS011;5938;47.098;15.474;2023-08-20T13:51:40;8.17;;;7.57;;
11761;SDS011;5938;47.098;15.474;2023-08-20T13:55:44;8.20;;;7.60;;
11761;SDS011;5938;47.098;15.474;2023-08-20T13:59:49;8.80;;;8.20;;
11761;SDS011;5938;47.098;15.474;2023-08-20T14:03:54;7.73;;;7.13;;
11761;SDS011;5938;47.098;15.474;2023-08-20T14:07:58;8.70;;;8.20;;
11761;SDS011;5938;47.098;15.474;2023-08-20T14:12:04;8.70;;;8.20;;
11761;SDS011;5938;47.098;15.474;2023-08-20T14:16:09;8.90;;;8.20;;
11761;SDS011;5938;47.098;15.474;2023-08-20T14:20:13;8.17;;;7.77;;
11761;SDS011;5938;47.098;15.474;2023-08-20T14:24:17;8.87;;;8.23;;
11761;SDS011;5938;47.098;15.474;2023-08-20T14:28:21;8.70;;;8.10;;
11761;SDS011;5938;47.098;15.474;2023-08-20T14:32:27;8.47;;;7.97;;
11761;SDS011;5938;47.098;15.474;2023-08-20T14:36:31;8.70;;;8.10;;
11761;SDS011;5938;47.098;15.474;2023-08-20T14:40:36;7.67;;;7.17;;
11761;SDS011;5938;47.098;15.474;2023-08-20T14:44:41;7.97;;;7.47;;
11761;SDS011;5938;47.098;15.474;2023-08-20T14:48:48;7.80;;;7.17;;
11761;SDS011;5938;47.098;15.474;2023-08-20T14:52:52;8.70;;;8.00;;
11761;SDS011;5938;47.098;15.474;2023-08-20T14:56:56;9.03;;;8.43;;
11761;SDS011;5938;47.098;15.474;2023-08-20T15:01:00;8.53;;;7.83;;
11761;SDS011;5938;47.098;15.474;2023-08-20T15:05:07;9.37;;;8.77;;
11761;SDS011;5938;47.098;15.474;2023-08-20T15:09:11;8.60;;;8.10;;
11761;SDS011;5938;47.098;15.474;2023-08-20T15:13:17;9.13;;;8.50;;
11761;SDS011;5938;47.098;15.474;2023-08-20T15:17:20;9.47;;;8.87;;
11761;SDS011;5938;47.098;15.474;2023-08-20T15:21:25;8.93;;;8.33;;
11761;SDS011;5938;47.098;15.474;2023-08-20T15:25:30;10.13;;;9.23;;
11761;SDS011;5938;47.098;15.474;2023-08-20T15:29:33;9.90;;;9.20;;
11761;SDS011;5938;47.098;15.474;2023-08-20T15:33:37;11.07;;;10.20;;
11761;SDS011;5938;47.098;15.474;2023-08-20T15:37:45;10.73;;;9.93;;
11761;SDS011;5938;47.098;15.474;2023-08-20T15:41:49;9.93;;;9.13;;
11761;SDS011;5938;47.098;15.474;2023-08-20T15:45:53;11.17;;;10.40;;
11761;SDS011;5938;47.098;15.474;2023-08-20T15:49:57;11.07;;;10.33;;
11761;SDS011;5938;47.098;15.474;2023-08-20T15:54:02;11.83;;;10.83;;
11761;SDS011;5938;47.098;15.474;2023-08-20T15:58:07;12.10;;;11.17;;
11761;SDS011;5938;47.098;15.474;2023-08-20T16:02:11;11.67;;;10.67;;
11761;SDS011;5938;47.098;15.474;2023-08-20T16:06:16;11.40;;;10.50;;
11761;SDS011;5938;47.098;15.474;2023-08-20T16:10:21;11.37;;;10.47;;
11761;SDS011;5938;47.098;15.474;2023-08-20T16:14:25;11.00;;;10.10;;
11761;SDS011;5938;47.098;15.474;2023-08-20T16:18:29;11.10;;;10.10;;
11761;SDS011;5938;47.098;15.474;2023-08-20T16:22:34;11.50;;;10.50;;
11761;SDS011;5938;47.098;15.474;2023-08-20T16:26:39;12.17;;;11.20;;
11761;SDS011;5938;47.098;15.474;2023-08-20T16:30:43;11.73;;;10.73;;
11761;SDS011;5938;47.098;15.474;2023-08-20T16:34:50;12.17;;;10.93;;
11761;SDS011;5938;47.098;15.474;2023-08-20T16:38:55;13.97;;;12.90;;
11761;SDS011;5938;47.098;15.474;2023-08-20T16:43:01;13.30;;;12.30;;
11761;SDS011;5938;47.098;15.474;2023-08-20T16:47:06;13.20;;;12.20;;
11761;SDS011;5938;47.098;15.474;2023-08-20T16:51:10;13.23;;;12.23;;
11761;SDS011;5938;47.098;15.474;2023-08-20T16:55:15;13.97;;;12.67;;
11761;SDS011;5938;47.098;15.474;2023-08-20T16:59:22;13.63;;;12.63;;
11761;SDS011;5938;47.098;15.474;2023-08-20T17:03:26;13.60;;;12.50;;
11761;SDS011;5938;47.098;15.474;2023-08-20T17:07:44;13.70;;;12.60;;
11761;SDS011;5938;47.098;15.474;2023-08-20T17:16:03;14.50;;;13.30;;
11761;SDS011;5938;47.098;15.474;2023-08-20T17:20:10;14.33;;;13.17;;
11761;SDS011;5938;47.098;15.474;2023-08-20T17:24:16;14.20;;;13.00;;
11761;SDS011;5938;47.098;15.474;2023-08-20T20:47:44;22.30;;;20.10;;
11761;SDS011;5938;47.098;15.474;2023-08-20T20:51:54;22.43;;;20.27;;
11761;SDS011;5938;47.098;15.474;2023-08-20T20:56:36;23.50;;;21.37;;
11761;SDS011;5938;47.098;15.474;2023-08-20T21:00:42;22.50;;;20.30;;
11761;SDS011;5938;47.098;15.474;2023-08-20T21:09:00;21.87;;;19.87;;
11761;SDS011;5938;47.098;15.474;2023-08-20T21:13:08;24.77;;;22.47;;
11761;SDS011;5938;47.098;15.474;2023-08-20T21:17:15;22.50;;;20.10;;
11761;SDS011;5938;47.098;15.474;2023-08-20T21:21:20;22.30;;;20.30;;
11761;SDS011;5938;47.098;15.474;2023-08-20T21:25:24;22.50;;;20.27;;
11761;SDS011;5938;47.098;15.474;2023-08-20T21:29:29;23.63;;;21.30;;
11761;SDS011;5938;47.098;15.474;2023-08-20T21:33:33;25.03;;;21.00;;
11761;SDS011;5938;47.098;15.474;2023-08-20T21:37:36;23.40;;;20.90;;
11761;SDS011;5938;47.098;15.474;2023-08-20T21:41:39;23.97;;;21.63;;
11761;SDS011;5938;47.098;15.474;2023-08-20T21:45:46;22.60;;;20.43;;
11761;SDS011;5938;47.098;15.474;2023-08-20T21:49:49;23.50;;;21.23;;
11761;SDS011;5938;47.098;15.474;2023-08-20T21:53:53;21.97;;;19.87;;
11761;SDS011;5938;47.098;15.474;2023-08-20T21:57:57;23.13;;;20.83;;
11761;SDS011;5938;47.098;15.474;2023-08-20T22:02:01;22.43;;;20.13;;
11761;SDS011;5938;47.098;15.474;2023-08-20T22:06:05;23.10;;;20.90;;
11761;SDS011;5938;47.098;15.474;2023-08-20T22:10:09;24.60;;;22.20;;
11761;SDS011;5938;47.098;15.474;2023-08-20T22:14:13;23.60;;;21.30;;
11761;SDS011;5938;47.098;15.474;2023-08-20T22:18:18;23.23;;;21.03;;
11761;SDS011;5938;47.098;15.474;2023-08-20T22:22:22;25.93;;;23.33;;
11761;SDS011;5938;47.098;15.474;2023-08-20T22:26:26;23.87;;;21.53;;
11761;SDS011;5938;47.098;15.474;2023-08-20T22:30:29;22.23;;;19.77;;
11761;SDS011;5938;47.098;15.474;2023-08-20T22:43:15;23.77;;;21.37;;
11761;SDS011;5938;47.098;15.474;2023-08-20T22:51:45;22.13;;;19.93;;
11761;SDS011;5938;47.098;15.474;2023-08-20T22:55:58;23.17;;;20.87;;
11761;SDS011;5938;47.098;15.474;2023-08-20T23:00:01;23.27;;;21.07;;
11761;SDS011;5938;47.098;15.474;2023-08-20T23:04:20;24.60;;;22.10;;
11761;SDS011;5938;47.098;15.474;2023-08-20T23:08:25;24.53;;;22.10;;
11761;SDS011;5938;47.098;15.474;2023-08-20T23:12:28;23.50;;;20.47;;
11761;SDS011;5938;47.098;15.474;2023-08-20T23:16:32;23.50;;;21.20;;
11761;SDS011;5938;47.098;15.474;2023-08-20T23:20:35;22.83;;;20.53;;
11761;SDS011;5938;47.098;15.474;2023-08-20T23:24:40;20.80;;;18.83;;
11761;SDS011;5938;47.098;15.474;2023-08-20T23:28:44;27.30;;;21.27;;
11761;SDS011;5938;47.098;15.474;2023-08-20T23:32:49;22.63;;;20.30;;
11761;SDS011;5938;47.098;15.474;2023-08-20T23:36:53;22.90;;;20.60;;
11761;SDS011;5938;47.098;15.474;2023-08-20T23:40:57;22.30;;;19.97;;
11761;SDS011;5938;47.098;15.474;2023-08-20T23:45:01;21.97;;;20.00;;
11761;SDS011;5938;47.098;15.474;2023-08-20T23:53:26;23.97;;;21.70;;
11761;SDS011;5938;47.098;15.474;2023-08-20T23:57:33;23.13;;;20.83;;
